Time;durP1;ratioP1;P1;durP2;ratioP2;P2;SDS_P1;SDS_P2;PMS_P1;PMS_P2;Temp;Humidity;BMP_temperature;BMP_pressure;BME280_temperature;BME280_humidity;BME280_pressure;Samples;Min_cycle;Max_cycle;Signal;HPM_P1;HPM_P2
2023/01/25 00:02:08;;;;;;;67.38;35.05;;;;;;;-144.87;100.00;61487.56;5004160;28;20045;-76
2023/01/25 00:04:34;;;;;;;61.30;33.42;;;;;;;-144.87;100.00;61487.56;5007517;28;20052;-76
2023/01/25 00:07:00;;;;;;;59.22;34.20;;;;;;;-144.87;100.00;61487.56;5005969;28;20433;-76
2023/01/25 00:09:27;;;;;;;62.90;34.83;;;;;;;-144.87;100.00;61487.56;5007373;28;20425;-76
2023/01/25 00:11:55;;;;;;;63.65;36.17;;;;;;;-144.87;100.00;61487.56;5041261;28;20034;-76
2023/01/25 00:14:22;;;;;;;63.83;35.60;;;;;;;-144.87;100.00;61487.56;4987891;28;20537;-76
2023/01/25 00:16:48;;;;;;;65.00;34.72;;;;;;;-144.87;100.00;61487.56;5007015;28;20034;-77
2023/01/25 00:19:14;;;;;;;63.08;35.78;;;;;;;-144.87;100.00;61487.56;5000084;28;20545;-77
2023/01/25 00:21:40;;;;;;;61.92;34.75;;;;;;;-144.87;100.00;61487.56;5019862;28;20404;-77
2023/01/25 00:24:07;;;;;;;63.00;35.33;;;;;;;-144.87;100.00;61487.56;5036400;28;20488;-77
2023/01/25 00:26:34;;;;;;;60.22;34.75;;;;;;;-144.87;100.00;61487.56;5008471;28;20076;-77
2023/01/25 00:29:01;;;;;;;63.85;34.30;;;;;;;-144.87;100.00;61487.56;4987303;28;20349;-77
2023/01/25 00:31:33;;;;;;;59.63;34.08;;;;;;;-144.87;100.00;61487.56;4999394;28;20425;-77
2023/01/25 00:34:20;;;;;;;66.05;35.05;;;;;;;-144.87;100.00;61487.56;5037465;28;20072;-77
2023/01/25 00:36:50;;;;;;;63.47;34.47;;;;;;;-144.87;100.00;61487.56;5014101;28;20145;-77
2023/01/25 00:39:16;;;;;;;64.18;34.83;;;;;;;-144.87;100.00;61487.56;5036102;28;20472;-77
2023/01/25 00:41:43;;;;;;;62.90;34.50;;;;;;;-144.87;100.00;61487.56;5035473;28;20042;-77
2023/01/25 00:44:09;;;;;;;59.70;33.70;;;;;;;-144.87;100.00;61487.56;5036672;28;20048;-76
2023/01/25 00:46:36;;;;;;;61.50;33.13;;;;;;;-144.87;100.00;61487.56;5037850;28;20448;-77
2023/01/25 00:49:05;;;;;;;61.10;34.08;;;;;;;-144.87;100.00;61487.56;5019408;28;20085;-77
2023/01/25 00:51:32;;;;;;;62.00;33.97;;;;;;;-144.87;100.00;61487.56;5019946;28;20088;-77
2023/01/25 00:53:59;;;;;;;64.97;33.58;;;;;;;-144.87;100.00;61487.56;5005711;28;20072;-77
2023/01/25 00:56:25;;;;;;;65.00;33.85;;;;;;;-144.87;100.00;61487.56;5035254;28;20389;-77
2023/01/25 00:58:51;;;;;;;61.17;33.20;;;;;;;-144.87;100.00;61487.56;5031799;28;20038;-77
2023/01/25 01:01:19;;;;;;;63.92;34.45;;;;;;;-144.87;100.00;61487.56;5032814;28;20030;-77
2023/01/25 01:03:45;;;;;;;62.50;34.20;;;;;;;-144.87;100.00;61487.56;5003891;28;20038;-77
2023/01/25 01:06:13;;;;;;;60.67;34.05;;;;;;;-144.87;100.00;61487.56;5009083;28;20038;-77
2023/01/25 01:08:40;;;;;;;60.25;33.60;;;;;;;-144.87;100.00;61487.56;4983616;28;20025;-77
2023/01/25 01:11:09;;;;;;;64.93;34.72;;;;;;;-144.87;100.00;61487.56;5017710;28;20049;-77
2023/01/25 01:13:36;;;;;;;67.10;34.88;;;;;;;-144.87;100.00;61487.56;5018594;28;20037;-77
2023/01/25 01:16:04;;;;;;;66.22;34.63;;;;;;;-144.87;100.00;61487.56;5036901;28;20484;-77
2023/01/25 01:18:35;;;;;;;65.30;33.75;;;;;;;-144.87;100.00;61487.56;4987311;28;20033;-77
2023/01/25 01:21:02;;;;;;;62.95;33.80;;;;;;;-144.87;100.00;61487.56;5016014;28;20519;-77
2023/01/25 01:23:29;;;;;;;64.45;33.40;;;;;;;-144.87;100.00;61487.56;5000620;28;20030;-77
2023/01/25 01:25:55;;;;;;;64.72;34.25;;;;;;;-144.87;100.00;61487.56;5018932;28;20038;-76
2023/01/25 01:28:22;;;;;;;65.57;33.92;;;;;;;-144.87;100.00;61487.56;5020590;28;20419;-77
2023/01/25 01:30:48;;;;;;;64.97;34.92;;;;;;;-144.87;100.00;61487.56;4987153;28;20584;-77
2023/01/25 01:33:14;;;;;;;62.95;33.67;;;;;;;-144.87;100.00;61487.56;5000628;28;20041;-77
2023/01/25 01:35:40;;;;;;;66.47;35.13;;;;;;;-144.87;100.00;61487.56;5005818;28;20397;-77
2023/01/25 01:38:07;;;;;;;66.68;35.40;;;;;;;-144.87;100.00;61487.56;5015728;28;20068;-77
2023/01/25 01:40:33;;;;;;;69.10;35.67;;;;;;;-144.87;100.00;61487.56;5022450;28;20034;-77
2023/01/25 01:43:01;;;;;;;64.25;34.92;;;;;;;-144.87;100.00;61487.56;5002829;28;20026;-77
2023/01/25 01:45:50;;;;;;;45.03;25.33;;;;;;;-144.87;100.00;61487.56;4989630;28;20034;-77
2023/01/25 01:48:29;;;;;;;65.93;34.08;;;;;;;-144.87;100.00;61487.56;5031702;28;20070;-77
2023/01/25 01:51:18;;;;;;;68.28;35.22;;;;;;;-144.87;100.00;61487.56;5033790;28;20400;-76
2023/01/25 01:53:54;;;;;;;70.45;34.35;;;;;;;-144.87;100.00;61487.56;5018090;28;20077;-76
2023/01/25 01:56:27;;;;;;;67.35;34.92;;;;;;;-144.87;100.00;61487.56;5019679;28;20050;-76
2023/01/25 01:58:55;;;;;;;66.55;34.85;;;;;;;-144.87;100.00;61487.56;5016517;28;20034;-77
2023/01/25 02:01:23;;;;;;;63.45;33.47;;;;;;;-144.87;100.00;61487.56;5009044;28;20050;-77
2023/01/25 02:03:50;;;;;;;70.60;35.00;;;;;;;-144.87;100.00;61487.56;5018165;28;20084;-77
2023/01/25 02:06:20;;;;;;;67.22;35.15;;;;;;;-144.87;100.00;61487.56;5006556;28;20041;-79
2023/01/25 02:08:46;;;;;;;47.80;26.13;;;;;;;-144.87;100.00;61487.56;5022757;28;20072;-77
2023/01/25 02:11:13;;;;;;;67.45;33.75;;;;;;;-144.87;100.00;61487.56;5024706;28;20050;-76
2023/01/25 02:13:39;;;;;;;65.70;33.75;;;;;;;-144.87;100.00;61487.56;5003128;28;20465;-77
2023/01/25 02:16:09;;;;;;;69.55;36.22;;;;;;;-144.87;100.00;61487.56;5024155;28;20065;-76
2023/01/25 02:18:35;;;;;;;62.05;33.58;;;;;;;-144.87;100.00;61487.56;4987889;28;20111;-76
2023/01/25 02:21:02;;;;;;;63.80;33.45;;;;;;;-144.87;100.00;61487.56;5005422;28;20064;-76
2023/01/25 02:23:33;;;;;;;64.78;35.30;;;;;;;-144.87;100.00;61487.56;5004620;28;20127;-76
2023/01/25 02:26:04;;;;;;;63.40;34.45;;;;;;;-144.87;100.00;61487.56;5024167;28;20042;-76
2023/01/25 02:28:44;;;;;;;75.13;35.97;;;;;;;-144.87;100.00;61487.56;5021834;28;20034;-77
2023/01/25 02:31:11;;;;;;;49.47;24.67;;;;;;;-144.87;100.00;61487.56;5007062;28;20408;-76
2023/01/25 02:33:37;;;;;;;66.03;34.50;;;;;;;-144.87;100.00;61487.56;5009531;28;20307;-76
2023/01/25 02:36:06;;;;;;;64.80;33.40;;;;;;;-144.87;100.00;61487.56;5006782;28;20358;-76
2023/01/25 02:38:39;;;;;;;65.63;33.83;;;;;;;-144.87;100.00;61487.56;5006067;28;20053;-76
2023/01/25 02:41:35;;;;;;;71.43;35.67;;;;;;;-144.87;100.00;61487.56;5035669;28;20034;-76
2023/01/25 02:44:07;;;;;;;67.90;34.38;;;;;;;-144.87;100.00;61487.56;4997426;28;20025;-76
2023/01/25 02:46:36;;;;;;;69.28;35.33;;;;;;;-144.87;100.00;61487.56;5023717;28;20104;-76
2023/01/25 02:49:05;;;;;;;66.25;34.67;;;;;;;-144.87;100.00;61487.56;5019885;28;20065;-76
2023/01/25 02:51:33;;;;;;;70.47;35.60;;;;;;;-144.87;100.00;61487.56;5023008;28;20030;-76
2023/01/25 02:53:59;;;;;;;68.75;35.78;;;;;;;-144.87;100.00;61487.56;5038384;28;20045;-76
2023/01/25 02:56:26;;;;;;;85.10;41.03;;;;;;;-144.87;100.00;61487.56;5006793;28;20101;-76
2023/01/25 02:58:53;;;;;;;71.13;36.45;;;;;;;-144.87;100.00;61487.56;5005929;28;20042;-76
2023/01/25 03:01:20;;;;;;;68.43;35.22;;;;;;;-144.87;100.00;61487.56;4989581;28;20026;-76
2023/01/25 03:03:46;;;;;;;66.65;33.95;;;;;;;-144.87;100.00;61487.56;5004420;28;20036;-77
2023/01/25 03:06:13;;;;;;;73.38;36.40;;;;;;;-144.87;100.00;61487.56;5023607;28;20065;-77
2023/01/25 03:08:41;;;;;;;65.20;34.70;;;;;;;-144.87;100.00;61487.56;5031526;28;20054;-76
2023/01/25 03:11:08;;;;;;;65.93;35.47;;;;;;;-144.87;100.00;61487.56;5001542;28;20238;-77
2023/01/25 03:13:36;;;;;;;68.60;36.13;;;;;;;-144.87;100.00;61487.56;5003668;28;20125;-77
2023/01/25 03:16:07;;;;;;;65.78;34.33;;;;;;;-144.87;100.00;61487.56;5023457;28;20549;-76
2023/01/25 03:18:34;;;;;;;71.18;36.03;;;;;;;-144.87;100.00;61487.56;4987803;28;20405;-77
2023/01/25 03:21:09;;;;;;;71.63;35.72;;;;;;;-144.87;100.00;61487.56;5005622;28;20053;-76
2023/01/25 03:23:36;;;;;;;68.43;34.63;;;;;;;-144.87;100.00;61487.56;5017995;28;20077;-76
2023/01/25 03:27:09;;;;;;;66.65;33.70;;;;;;;-144.87;100.00;61487.56;5025205;28;20078;-76
2023/01/25 03:29:20;;;;;;;67.97;34.97;;;;;;;-144.87;100.00;61487.56;4994842;28;20407;-76
2023/01/25 03:31:48;;;;;;;71.18;36.22;;;;;;;-144.87;100.00;61487.56;5021169;28;20038;-76
2023/01/25 03:34:14;;;;;;;72.85;36.25;;;;;;;-144.87;100.00;61487.56;5006669;28;20038;-76
2023/01/25 03:36:42;;;;;;;70.43;36.72;;;;;;;-144.87;100.00;61487.56;5037965;28;20042;-76
2023/01/25 03:39:08;;;;;;;77.78;37.67;;;;;;;-144.87;100.00;61487.56;5021754;28;20038;-76
2023/01/25 03:41:39;;;;;;;75.60;36.47;;;;;;;-144.87;100.00;61487.56;5007985;28;20044;-76
2023/01/25 03:44:12;;;;;;;69.35;35.50;;;;;;;-144.87;100.00;61487.56;5008807;28;20168;-76
2023/01/25 03:46:40;;;;;;;75.40;36.45;;;;;;;-144.87;100.00;61487.56;5025886;28;20034;-76
2023/01/25 03:49:07;;;;;;;70.78;36.30;;;;;;;-144.87;100.00;61487.56;5020944;28;20614;-77
2023/01/25 03:51:33;;;;;;;75.47;36.72;;;;;;;-144.87;100.00;61487.56;5019563;28;20540;-76
2023/01/25 03:53:59;;;;;;;72.72;36.70;;;;;;;-144.87;100.00;61487.56;5039528;28;20417;-77
2023/01/25 03:56:26;;;;;;;75.57;36.42;;;;;;;-144.87;100.00;61487.56;5008061;28;20054;-77
2023/01/25 03:59:15;;;;;;;76.40;37.40;;;;;;;-144.87;100.00;61487.56;5006237;28;20038;-76
2023/01/25 04:01:42;;;;;;;70.15;34.35;;;;;;;-144.87;100.00;61487.56;5006322;28;20034;-78
2023/01/25 04:04:08;;;;;;;71.75;36.63;;;;;;;-144.87;100.00;61487.56;4987153;28;20080;-77
2023/01/25 04:06:37;;;;;;;70.00;36.40;;;;;;;-144.87;100.00;61487.56;5023962;28;20034;-77
2023/01/25 04:09:04;;;;;;;79.82;38.30;;;;;;;-144.87;100.00;61487.56;4992278;28;20061;-77
2023/01/25 04:11:37;;;;;;;76.63;38.28;;;;;;;-144.87;100.00;61487.56;5024408;28;20092;-77
2023/01/25 04:14:03;;;;;;;78.32;38.65;;;;;;;-144.87;100.00;61487.56;5024494;28;20057;-77
2023/01/25 04:16:37;;;;;;;78.30;37.08;;;;;;;-144.87;100.00;61487.56;5021204;28;20037;-77
2023/01/25 04:19:30;;;;;;;77.00;37.20;;;;;;;-144.87;100.00;61487.56;5004957;28;20412;-77
2023/01/25 04:21:59;;;;;;;77.97;37.80;;;;;;;-144.87;100.00;61487.56;4995870;28;20414;-77
2023/01/25 04:24:31;;;;;;;79.28;40.35;;;;;;;-144.87;100.00;61487.56;5032929;28;20033;-77
2023/01/25 04:26:57;;;;;;;84.70;41.35;;;;;;;-144.87;100.00;61487.56;5041869;28;20053;-78
2023/01/25 04:29:24;;;;;;;74.07;38.78;;;;;;;-144.87;100.00;61487.56;5039908;28;20041;-78
2023/01/25 04:31:51;;;;;;;79.85;39.50;;;;;;;-144.87;100.00;61487.56;5023849;28;20037;-77
2023/01/25 04:34:17;;;;;;;80.45;39.95;;;;;;;-144.87;100.00;61487.56;5005092;28;20164;-76
2023/01/25 04:36:45;;;;;;;83.32;40.53;;;;;;;-144.87;100.00;61487.56;5017096;28;20476;-77
2023/01/25 04:39:12;;;;;;;77.72;37.97;;;;;;;-144.87;100.00;61487.56;5013676;28;20033;-77
2023/01/25 04:41:38;;;;;;;77.55;37.70;;;;;;;-144.87;100.00;61487.56;5019305;28;20026;-77
2023/01/25 04:44:05;;;;;;;74.43;38.13;;;;;;;-144.87;100.00;61487.56;5007022;28;20115;-77
2023/01/25 04:46:31;;;;;;;81.40;39.67;;;;;;;-144.87;100.00;61487.56;5024272;28;20080;-77
2023/01/25 04:48:58;;;;;;;85.55;38.80;;;;;;;-144.87;100.00;61487.56;5018061;28;20176;-77
2023/01/25 04:51:24;;;;;;;82.75;39.78;;;;;;;-144.87;100.00;61487.56;5006758;28;20037;-77
2023/01/25 04:53:51;;;;;;;82.22;40.92;;;;;;;-144.87;100.00;61487.56;5023963;28;20042;-77
2023/01/25 04:56:17;;;;;;;86.68;40.90;;;;;;;-144.87;100.00;61487.56;5007894;28;20073;-76
2023/01/25 04:58:49;;;;;;;83.43;41.05;;;;;;;-144.87;100.00;61487.56;4986414;28;20097;-77
2023/01/25 05:01:16;;;;;;;80.63;37.70;;;;;;;-144.87;100.00;61487.56;5024075;28;20030;-77
2023/01/25 05:03:42;;;;;;;87.45;40.92;;;;;;;-144.87;100.00;61487.56;5039585;28;20373;-77
2023/01/25 05:06:17;;;;;;;82.70;40.03;;;;;;;-144.87;100.00;61487.56;5019929;28;20099;-77
2023/01/25 05:08:44;;;;;;;84.43;41.83;;;;;;;-144.87;100.00;61487.56;5021227;28;20037;-75
2023/01/25 05:11:10;;;;;;;89.90;41.92;;;;;;;-144.87;100.00;61487.56;5008035;28;20042;-75
2023/01/25 05:13:59;;;;;;;83.47;39.00;;;;;;;-144.87;100.00;61487.56;5004947;28;20042;-76
2023/01/25 05:16:31;;;;;;;85.22;39.13;;;;;;;-144.87;100.00;61487.56;5004949;28;20129;-76
2023/01/25 05:18:58;;;;;;;82.47;39.80;;;;;;;-144.87;100.00;61487.56;5031069;28;20034;-77
2023/01/25 05:24:23;;;;;;;89.53;38.95;;;;;;;-144.87;100.00;61487.56;5021599;28;20041;-77
2023/01/25 05:27:04;;;;;;;87.35;40.60;;;;;;;-144.87;100.00;61487.56;5008077;28;20460;-77
2023/01/25 05:29:59;;;;;;;72.20;30.13;;;;;;;-144.87;100.00;61487.56;5004619;28;20811;-77
2023/01/25 05:32:52;;;;;;;83.25;37.88;;;;;;;-144.87;100.00;61487.56;5014406;28;20089;-77
2023/01/25 05:35:19;;;;;;;84.15;39.20;;;;;;;-144.87;100.00;61487.56;5007595;28;20409;-77
2023/01/25 05:37:46;;;;;;;84.50;39.20;;;;;;;-144.87;100.00;61487.56;5024085;28;20110;-77
2023/01/25 05:40:20;;;;;;;84.63;38.70;;;;;;;-144.87;100.00;61487.56;5002056;28;20042;-77
2023/01/25 05:43:01;;;;;;;89.70;41.47;;;;;;;-144.87;100.00;61487.56;5038999;28;20029;-77
2023/01/25 05:45:29;;;;;;;87.07;41.72;;;;;;;-144.87;100.00;61487.56;5006474;28;20054;-77
2023/01/25 05:47:58;;;;;;;89.78;41.67;;;;;;;-144.87;100.00;61487.56;5006164;28;20033;-77
2023/01/25 05:50:25;;;;;;;88.05;41.70;;;;;;;-144.87;100.00;61487.56;5034625;28;20492;-79
2023/01/25 05:53:00;;;;;;;91.75;41.63;;;;;;;-144.87;100.00;61487.56;5033083;28;20136;-76
2023/01/25 05:55:27;;;;;;;93.20;42.42;;;;;;;-144.87;100.00;61487.56;5038259;28;20227;-76
2023/01/25 05:57:55;;;;;;;93.80;44.08;;;;;;;-144.87;100.00;61487.56;5043906;28;20115;-76
2023/01/25 06:00:22;;;;;;;94.80;44.08;;;;;;;-144.87;100.00;61487.56;5020577;28;20150;-76
2023/01/25 06:02:49;;;;;;;89.50;42.08;;;;;;;-144.87;100.00;61487.56;5030991;28;20395;-76
2023/01/25 06:05:19;;;;;;;89.65;41.63;;;;;;;-144.87;100.00;61487.56;5001118;28;20648;-76
2023/01/25 06:07:46;;;;;;;85.78;39.25;;;;;;;-144.87;100.00;61487.56;5016217;28;20142;-76
2023/01/25 06:10:13;;;;;;;89.95;43.03;;;;;;;-144.87;100.00;61487.56;4994116;28;20038;-78
2023/01/25 06:12:39;;;;;;;93.47;41.53;;;;;;;-144.87;100.00;61487.56;5005205;28;20132;-78
2023/01/25 06:15:07;;;;;;;90.43;40.45;;;;;;;-144.87;100.00;61487.56;5041002;28;20534;-78
2023/01/25 06:17:33;;;;;;;90.75;41.30;;;;;;;-144.87;100.00;61487.56;5006967;28;20370;-78
2023/01/25 06:20:21;;;;;;;94.47;43.58;;;;;;;-144.87;100.00;61487.56;5034304;28;20066;-77
2023/01/25 06:23:13;;;;;;;93.25;41.67;;;;;;;-144.87;100.00;61487.56;5028925;28;20049;-77
2023/01/25 06:25:40;;;;;;;91.30;40.88;;;;;;;-144.87;100.00;61487.56;5009037;28;20033;-77
2023/01/25 06:28:06;;;;;;;94.22;41.90;;;;;;;-144.87;100.00;61487.56;5007711;28;20026;-77
2023/01/25 06:30:32;;;;;;;91.20;40.28;;;;;;;-144.87;100.00;61487.56;5040588;28;20041;-77
2023/01/25 06:32:59;;;;;;;91.80;41.47;;;;;;;-144.87;100.00;61487.56;5007671;28;20374;-78
2023/01/25 06:35:26;;;;;;;90.85;42.00;;;;;;;-144.87;100.00;61487.56;5039706;28;20412;-78
2023/01/25 06:37:55;;;;;;;90.50;41.47;;;;;;;-144.87;100.00;61487.56;5034896;28;20117;-78
2023/01/25 06:40:21;;;;;;;93.22;42.45;;;;;;;-144.87;100.00;61487.56;5030850;28;20030;-77
2023/01/25 06:42:47;;;;;;;91.90;41.25;;;;;;;-144.87;100.00;61487.56;5007411;28;20077;-78
2023/01/25 06:45:14;;;;;;;90.80;40.67;;;;;;;-144.87;100.00;61487.56;5009554;28;20042;-78
2023/01/25 06:47:40;;;;;;;92.93;41.38;;;;;;;-144.87;100.00;61487.56;5024403;28;20037;-77
2023/01/25 06:50:07;;;;;;;83.55;38.80;;;;;;;-144.87;100.00;61487.56;5008831;28;20091;-77
2023/01/25 06:52:35;;;;;;;86.93;40.65;;;;;;;-144.87;100.00;61487.56;5041163;28;20617;-77
2023/01/25 06:55:02;;;;;;;90.75;40.95;;;;;;;-144.87;100.00;61487.56;5009225;28;20072;-77
2023/01/25 06:57:29;;;;;;;84.93;41.00;;;;;;;-144.87;100.00;61487.56;5023615;28;20513;-77
2023/01/25 06:59:55;;;;;;;84.97;40.38;;;;;;;-144.87;100.00;61487.56;5010863;28;20146;-78
2023/01/25 07:02:21;;;;;;;85.57;39.78;;;;;;;-144.87;100.00;61487.56;5013456;28;20489;-77
2023/01/25 07:04:47;;;;;;;93.45;40.80;;;;;;;-144.87;100.00;61487.56;5044818;28;20111;-77
2023/01/25 07:07:14;;;;;;;88.25;40.42;;;;;;;-144.87;100.00;61487.56;5004890;28;20128;-77
2023/01/25 07:09:40;;;;;;;92.13;41.25;;;;;;;-144.87;100.00;61487.56;5015148;28;20521;-77
2023/01/25 07:12:07;;;;;;;90.93;41.53;;;;;;;-144.87;100.00;61487.56;5048170;28;20095;-77
2023/01/25 07:14:33;;;;;;;97.57;43.47;;;;;;;-144.87;100.00;61487.56;5038640;28;20121;-77
2023/01/25 07:17:00;;;;;;;93.63;42.67;;;;;;;-144.87;100.00;61487.56;5006344;28;20042;-77
2023/01/25 07:19:26;;;;;;;91.88;40.38;;;;;;;-144.87;100.00;61487.56;5008404;28;20390;-77
2023/01/25 07:21:53;;;;;;;97.75;42.85;;;;;;;-144.87;100.00;61487.56;5011957;28;20037;-77
2023/01/25 07:24:19;;;;;;;96.97;43.10;;;;;;;-144.87;100.00;61487.56;5010908;28;20053;-77
2023/01/25 07:26:49;;;;;;;96.93;42.45;;;;;;;-144.87;100.00;61487.56;5011711;28;20046;-77
2023/01/25 07:29:15;;;;;;;97.28;41.60;;;;;;;-144.87;100.00;61487.56;5011400;28;20033;-78
2023/01/25 07:31:42;;;;;;;91.35;39.47;;;;;;;-144.87;100.00;61487.56;5011465;28;20045;-77
2023/01/25 07:34:09;;;;;;;96.07;41.40;;;;;;;-144.87;100.00;61487.56;5009996;28;20030;-77
2023/01/25 07:36:36;;;;;;;98.72;43.20;;;;;;;-144.87;100.00;61487.56;5012359;28;20479;-77
2023/01/25 07:39:03;;;;;;;97.65;44.65;;;;;;;-144.87;100.00;61487.56;5009878;28;20404;-77
2023/01/25 07:41:29;;;;;;;111.30;42.42;;;;;;;-144.87;100.00;61487.56;5012691;28;20083;-85
2023/01/25 07:43:55;;;;;;;99.78;41.55;;;;;;;-144.87;100.00;61487.56;5011320;28;20722;-77
2023/01/25 07:46:38;;;;;;;98.07;42.25;;;;;;;-144.87;100.00;61487.56;5029542;28;20033;-77
2023/01/25 07:49:04;;;;;;;99.30;42.47;;;;;;;-144.87;100.00;61487.56;5011545;28;20042;-77
2023/01/25 07:51:30;;;;;;;103.28;44.53;;;;;;;-144.87;100.00;61487.56;5010478;28;20410;-79
2023/01/25 07:53:59;;;;;;;97.10;41.25;;;;;;;-144.87;100.00;61487.56;5011979;28;20475;-77
2023/01/25 07:56:30;;;;;;;98.00;41.53;;;;;;;-144.87;100.00;61487.56;4994503;28;20069;-78
2023/01/25 07:58:58;;;;;;;100.20;43.83;;;;;;;-144.87;100.00;61487.56;5012079;28;20552;-77
2023/01/25 08:01:26;;;;;;;101.13;42.90;;;;;;;-144.87;100.00;61487.56;5010151;28;20040;-78
2023/01/25 08:03:54;;;;;;;98.05;43.63;;;;;;;-144.87;100.00;61487.56;5025945;28;20578;-78
2023/01/25 08:06:34;;;;;;;102.55;44.17;;;;;;;-144.87;100.00;61487.56;5043590;28;20042;-77
2023/01/25 08:09:09;;;;;;;105.53;43.55;;;;;;;-144.87;100.00;61487.56;5011632;28;20061;-78
2023/01/25 08:11:35;;;;;;;102.05;43.72;;;;;;;-144.87;100.00;61487.56;5016657;28;20042;-77
2023/01/25 08:14:02;;;;;;;105.53;44.05;;;;;;;-144.87;100.00;61487.56;5044366;28;20038;-77
2023/01/25 08:16:29;;;;;;;101.13;43.75;;;;;;;-144.87;100.00;61487.56;5026630;28;20042;-77
2023/01/25 08:18:57;;;;;;;105.13;43.63;;;;;;;-144.87;100.00;61487.56;5026398;28;20041;-76
2023/01/25 08:21:28;;;;;;;103.35;44.00;;;;;;;-144.87;100.00;61487.56;5043100;28;20034;-78
2023/01/25 08:23:56;;;;;;;102.30;43.13;;;;;;;-144.87;100.00;61487.56;5009408;28;20038;-77
2023/01/25 08:26:23;;;;;;;106.10;45.72;;;;;;;-144.87;100.00;61487.56;5040637;28;20405;-76
2023/01/25 08:28:52;;;;;;;103.30;44.85;;;;;;;-144.87;100.00;61487.56;4993787;28;20120;-76
2023/01/25 08:31:22;;;;;;;111.60;45.05;;;;;;;-144.87;100.00;61487.56;5009053;28;20096;-76
2023/01/25 08:33:50;;;;;;;108.60;44.28;;;;;;;-144.87;100.00;61487.56;5008459;28;20049;-77
2023/01/25 08:36:17;;;;;;;106.35;44.60;;;;;;;-144.87;100.00;61487.56;4993829;28;20485;-77
2023/01/25 08:38:44;;;;;;;106.97;45.13;;;;;;;-144.87;100.00;61487.56;5002150;28;20084;-77
2023/01/25 08:41:16;;;;;;;111.20;46.80;;;;;;;-144.87;100.00;61487.56;5042499;28;20064;-78
2023/01/25 08:43:43;;;;;;;112.70;47.30;;;;;;;-144.87;100.00;61487.56;5042009;28;20092;-78
2023/01/25 08:46:11;;;;;;;106.63;46.58;;;;;;;-144.87;100.00;61487.56;5041856;28;20417;-77
2023/01/25 08:48:37;;;;;;;112.82;46.22;;;;;;;-144.87;100.00;61487.56;5024863;28;20400;-77
2023/01/25 08:51:06;;;;;;;120.75;48.70;;;;;;;-144.87;100.00;61487.56;5008627;28;20459;-77
2023/01/25 08:53:32;;;;;;;116.25;46.08;;;;;;;-144.87;100.00;61487.56;5041100;28;20404;-77
2023/01/25 08:56:04;;;;;;;145.85;48.20;;;;;;;-144.87;100.00;61487.56;5009627;28;20044;-77
2023/01/25 08:58:31;;;;;;;118.30;47.72;;;;;;;-144.87;100.00;61487.56;5041645;28;20053;-78
2023/01/25 09:01:03;;;;;;;114.50;46.38;;;;;;;-144.87;100.00;61487.56;5025660;28;20040;-77
2023/01/25 09:03:29;;;;;;;114.32;46.35;;;;;;;-144.87;100.00;61487.56;5010082;28;20053;-86
2023/01/25 09:05:55;;;;;;;115.28;46.35;;;;;;;-144.87;100.00;61487.56;5025861;28;20045;-77
2023/01/25 09:08:22;;;;;;;115.75;47.28;;;;;;;-144.87;100.00;61487.56;5010283;28;20034;-77
2023/01/25 09:10:48;;;;;;;111.00;46.55;;;;;;;-144.87;100.00;61487.56;5042613;28;20108;-77
2023/01/25 09:13:14;;;;;;;111.28;46.38;;;;;;;-144.87;100.00;61487.56;5025409;28;20144;-77
2023/01/25 09:15:40;;;;;;;116.75;45.63;;;;;;;-144.87;100.00;61487.56;5025174;28;20129;-77
2023/01/25 09:18:07;;;;;;;113.28;46.15;;;;;;;-144.87;100.00;61487.56;5010613;28;20495;-77
2023/01/25 09:20:34;;;;;;;112.57;46.22;;;;;;;-144.87;100.00;61487.56;5010872;28;20073;-78
2023/01/25 09:23:00;;;;;;;109.95;46.15;;;;;;;-144.87;100.00;61487.56;5006193;28;20060;-78
2023/01/25 09:25:26;;;;;;;106.03;45.10;;;;;;;-144.87;100.00;61487.56;5021963;28;20038;-78
2023/01/25 09:27:52;;;;;;;110.88;44.92;;;;;;;-144.87;100.00;61487.56;5029142;28;20052;-77
2023/01/25 09:30:19;;;;;;;113.72;45.75;;;;;;;-144.87;100.00;61487.56;5008761;28;20037;-78
2023/01/25 09:32:50;;;;;;;114.60;43.67;;;;;;;-144.87;100.00;61487.56;5008020;28;20041;-77
2023/01/25 09:35:16;;;;;;;116.50;43.38;;;;;;;-144.87;100.00;61487.56;5021382;28;20034;-77
2023/01/25 09:37:43;;;;;;;107.20;43.60;;;;;;;-144.87;100.00;61487.56;5010028;28;20799;-78
2023/01/25 09:40:23;;;;;;;118.45;47.65;;;;;;;-144.87;100.00;61487.56;5009825;28;20116;-78
2023/01/25 09:42:56;;;;;;;109.35;46.00;;;;;;;-144.87;100.00;61487.56;4992869;28;20092;-78
2023/01/25 09:45:36;;;;;;;110.15;45.25;;;;;;;-144.87;100.00;61487.56;5007811;28;20068;-77
2023/01/25 09:48:13;;;;;;;117.60;46.70;;;;;;;-144.87;100.00;61487.56;5010430;28;20452;-78
2023/01/25 09:51:25;;;;;;;112.63;45.47;;;;;;;-144.87;100.00;61487.56;5008054;28;20034;-77
2023/01/25 09:53:55;;;;;;;118.55;46.25;;;;;;;-144.87;100.00;61487.56;5008869;28;20413;-77
2023/01/25 09:56:25;;;;;;;109.70;44.63;;;;;;;-144.87;100.00;61487.56;4993836;28;20038;-78
2023/01/25 09:58:54;;;;;;;114.88;46.47;;;;;;;-144.87;100.00;61487.56;5022024;28;20057;-77
2023/01/25 10:01:33;;;;;;;109.68;45.75;;;;;;;-144.87;100.00;61487.56;5022222;28;20401;-77
2023/01/25 10:04:54;;;;;;;112.75;44.88;;;;;;;-144.87;100.00;61487.56;5029417;28;20045;-77
2023/01/25 10:07:27;;;;;;;114.78;46.80;;;;;;;-144.87;100.00;61487.56;4995734;28;20046;-75
2023/01/25 10:10:05;;;;;;;117.00;45.38;;;;;;;-144.87;100.00;61487.56;5006851;28;20117;-77
2023/01/25 10:12:37;;;;;;;111.82;46.05;;;;;;;-144.87;100.00;61487.56;5028543;28;20033;-76
2023/01/25 10:15:17;;;;;;;120.38;46.78;;;;;;;-144.87;100.00;61487.56;5010027;28;20033;-77
2023/01/25 10:17:44;;;;;;;113.57;46.35;;;;;;;-144.87;100.00;61487.56;4992443;28;20030;-76
2023/01/25 10:20:31;;;;;;;113.50;45.90;;;;;;;-144.87;100.00;61487.56;5007553;28;20042;-77
2023/01/25 10:23:13;;;;;;;113.70;44.50;;;;;;;-144.87;100.00;61487.56;5025334;28;20416;-77
2023/01/25 10:25:52;;;;;;;110.72;44.90;;;;;;;-144.87;100.00;61487.56;5022277;28;20041;-77
2023/01/25 10:28:34;;;;;;;112.68;44.88;;;;;;;-144.87;100.00;61487.56;5037066;28;20022;-76
2023/01/25 10:31:10;;;;;;;118.72;45.53;;;;;;;-144.87;100.00;61487.56;4989990;28;20065;-76
2023/01/25 10:33:39;;;;;;;108.63;46.03;;;;;;;-144.87;100.00;61487.56;5029426;28;20500;-77
2023/01/25 10:36:06;;;;;;;110.72;44.95;;;;;;;-144.87;100.00;61487.56;5027424;28;20029;-77
2023/01/25 10:38:38;;;;;;;115.53;45.33;;;;;;;-144.87;100.00;61487.56;5044767;28;20038;-81
2023/01/25 10:41:10;;;;;;;110.68;44.25;;;;;;;-144.87;100.00;61487.56;5042182;28;20042;-76
2023/01/25 10:43:37;;;;;;;107.93;43.35;;;;;;;-144.87;100.00;61487.56;5012508;28;20042;-77
2023/01/25 10:46:04;;;;;;;117.40;44.17;;;;;;;-144.87;100.00;61487.56;5013357;28;20445;-76
2023/01/25 10:48:34;;;;;;;107.60;43.78;;;;;;;-144.87;100.00;61487.56;5044822;28;20485;-77
2023/01/25 10:51:01;;;;;;;106.78;42.60;;;;;;;-144.87;100.00;61487.56;5010948;28;20493;-76
2023/01/25 10:53:31;;;;;;;110.32;45.10;;;;;;;-144.87;100.00;61487.56;4995831;28;20362;-77
2023/01/25 10:56:05;;;;;;;109.35;44.25;;;;;;;-144.87;100.00;61487.56;5044320;28;20038;-76
2023/01/25 10:58:38;;;;;;;111.15;44.40;;;;;;;-144.87;100.00;61487.56;5011803;28;20142;-78
2023/01/25 11:01:06;;;;;;;106.47;44.35;;;;;;;-144.87;100.00;61487.56;5012279;28;20069;-76
2023/01/25 11:03:43;;;;;;;109.90;43.95;;;;;;;-144.87;100.00;61487.56;5013285;28;20100;-76
2023/01/25 11:06:10;;;;;;;99.85;40.67;;;;;;;-144.87;100.00;61487.56;5027603;28;20105;-77
2023/01/25 11:08:38;;;;;;;104.63;43.88;;;;;;;-144.87;100.00;61487.56;5028350;28;20092;-76